Milton Mills, New Hampshire
Current Conditions -  °F | °C
As of 6:15 AM on Monday 22 Dec 2014 (Local Time) from KSFM Reporting Station
Overcast Overcast  
Wind Chill: 21°   Ceiling: 5000
Heat Index: 28°   Visibility: 10mi
Dew Point: 19°   Wind: 7mph
Humidity: 69%   Direction: 10°N
Pressure: 30.39"   Gusts: NA
Location:  43.5°N, 70.96°W
Report Text: KSFM 221115Z AUTO 01006KT 10SM OVC050 M02/M07 A3039 RMK AO1
Loading
Personal Weather Stations






























Interactive Weather Map New forecast layout! Learn more

10-Day Weather Forecast

Advertisements
Track Severe Weather on mobile